Language selection

My Weather Profile Weather Topics  | 

Lake Nipigon: Past 24 Hour Conditions

 

Pukaskwa National Park

12:00 AM EDT 28 September 2021
Disclaimer

This table is a summary of hourly weather conditions for the past 24 hours.
Please note that these observations might not always be representative of weather conditions over their associated marine area.

Date / Time
(EDT)
Wind(knots) Conditions Visibility(km) Pressure(kPa) Air tempC) Relative humidity(%) Dew pointC)
28 September 2021
0:00 ENE 2 N/A N/A 101.5 5 96 5
27 September 2021
23:00 calm N/A N/A 101.5 6 95 5
22:00 calm N/A N/A 101.5 7 94 6
21:00 calm N/A N/A 101.5 8 93 7
20:00 calm N/A N/A 101.5 9 90 8
19:00 WSW 2 N/A N/A 101.4 11 82 8
18:00 WSW 5 N/A N/A 101.4 12 74 7
17:00 W 5 N/A N/A 101.4 14 64 7
16:00 WNW 3 N/A N/A 101.3 14 57 6
15:00 NE 2 N/A N/A 101.4 13 58 5
14:00 N 3 N/A N/A 101.4 13 58 5
13:00 N 1 N/A N/A 101.4 12 63 5
12:00 NE 4 N/A N/A 101.4 11 67 5
11:00 NE 5 N/A N/A 101.3 10 73 5
10:00 NE 5 N/A N/A 101.3 8 90 6
9:00 NE 4 N/A N/A 101.2 6 95 5
8:00 ENE 4 N/A N/A 101.2 5 96 4
7:00 NE 5 N/A N/A 101.1 5 97 5
6:00 ENE 4 N/A N/A 101.0 5 97 5
5:00 ENE 5 N/A N/A 101.0 6 96 6
4:00 NE 5 N/A N/A 100.9 7 96 7
3:00 NE 5 N/A N/A 100.9 8 97 7
2:00 NE 4 N/A N/A 100.8 7 97 7
1:00 ENE 3 N/A N/A 100.8 8 97 8
0:00 NE 3 N/A N/A 100.7 9 97 8

Zoom-in to make a selection

Map of Great Lakes - Lake Superior marine weather areas Mid Superior - 45001 East Superior - 45004 West Superior - 45006 Slate Island - 45136 Lake Of the Woods - 45148 Kenora Airport Royal Island Armstrong Airport Caribou Island Marathon Airport Pukaskwa National Park Thunder Bay Airport Welcome Island Little Flatland Island Sault Ste. Marie Airport Wawa Airport
Legend:
buoy Buoy
land station Land Station

Great Lakes - Lake Superior Area

Another Region

What we are doing

Date modified: